General Aviation Weather

Text Reports

Enter one or more of the following location identifiers separated by a space:

Zip Code, Four-Character ICAO or Three-Character IATA airport codes.

METAR - Aviation Routine Weather Report
KZPH - Zephyrhills, Florida
Updated at 9:15 PM GMT on December 26, 2014 (4:15 PM EST):
METAR KZPH 262115Z AUTO 00000KT 10SM OVC037 19/13 A3021 RMK AO2
TAF - Terminal Area Forecast
KZPH - Zephyrhills, Florida
Updated at 9:15 PM GMT on December 26, 2014 (4:15 PM EST):
No TAF is currently available for this location.
Decoded:
No decoded TAF is available.
PIREP - Pilot Weather Report
KZPH - Zephyrhills, Florida
Updated at 9:15 PM GMT on December 26, 2014 (4:15 PM EST):
No PIREP is currently available for this location.
AIRMET - Airmens Meteorological Information
KZPH - Zephyrhills, Florida
Updated at 9:15 PM GMT on December 26, 2014 (4:15 PM EST):
No AIRMET is currently available for this location.
SIGMET - Significant Meteorological Information
KZPH - Zephyrhills, Florida
Updated at 9:15 PM GMT on December 26, 2014 (4:15 PM EST):
No SIGMET is currently available for this location.
NOTAM - Notice to Airmen
KZPH - Zephyrhills, Florida
Updated at 9:15 PM GMT on December 26, 2014 (4:15 PM EST):
No NOTAM is currently available for this location.
Forecast Area
KZPH - Zephyrhills, Florida
Updated at 9:15 PM GMT on December 26, 2014 (4:15 PM EST):
No NOTAM is currently available for this location.
Aviation Weather Maps